Hauptseite
METAR-TAF:

METAR-TAF

Flughäfen :

Flughafen Erfurt-Weimar

Erfurt, Deutschland

Breite: 50-59N, Länge: 010-58E, Höhe: 315 m

Beobachtung

Neuester Wetterbericht von vor 38 Minuten, um 03:50 UTC
Wind 8 kt aus Süd/Südwest
Temperatur 2°C
Luftfeuchtigkeit 100%
Luftdruck 1023 hPa
Sichtweite 10 km oder mehr
keine Wolken unter 1500 m und keine Kumulonimbus oder Gewitterwolken

METAR: EDDE 180350Z 21008KT CAVOK 02/02 Q1023 NOSIG

Zeit: 06:28 (04:28 UTC)

Prognose

Neuester Wetterbericht von vor 5 Stunden und 28 Minuten, um 23:00 UTC
Gültige Prognose vom 18 um 00 UTC bis 18 um 24 UTC
Wind 5 kt aus Süd/Südwest
Sichtweite 10 km oder mehr
keine Wolken unter 1500 m und keine Kumulonimbus oder Gewitterwolken

TAF: EDDE 172300Z 1800/1824 21005KT CAVOK

Wetterbeobachtungen und Prognosen von mehr als 4000 Flughäfen (METAR und TAF Bericht).

Die verfügbaren Stationen werden durch gelbe und rote Markierungen auf der Karte dargestellt.

Führen Sie die Maus auf sie, um den Namen der Station zu sehen.

Darauf klicken, um die Beobachtung von Wetterbeobachtungen und Prognosen zu sehen.

Um die Karte zu ändern : klicken Sie auf den grünen Tasten mit einem schwarzen Kreuz Zum Vergrößern, auf den grünen Button mit einem Gedankenstrich zu verkleinern, oder auf die grünen Pfeile für benachbarte Karten.


METAR-TAF: